createdAt,value
2023-04-19T00:00:19.912Z,102391.59
2023-04-19T00:02:49.270Z,102383.75
2023-04-19T00:05:16.568Z,102362.41
2023-04-19T00:07:43.617Z,102392.19
2023-04-19T00:10:11.024Z,102380.78
2023-04-19T00:12:38.046Z,102360.47
2023-04-19T00:15:06.296Z,102369.84
2023-04-19T00:17:34.666Z,102390.00
2023-04-19T00:20:01.996Z,102354.50
2023-04-19T00:22:28.976Z,102365.41
2023-04-19T00:24:55.852Z,102372.19
2023-04-19T00:27:22.988Z,102378.00
2023-04-19T00:29:49.890Z,102369.44
2023-04-19T00:32:17.465Z,102371.59
2023-04-19T00:34:44.396Z,102358.59
2023-04-19T00:37:11.376Z,102381.44
2023-04-19T00:39:39.606Z,102354.97
2023-04-19T00:42:13.723Z,102378.09
2023-04-19T00:44:40.680Z,102385.44
2023-04-19T00:47:07.626Z,102372.16
2023-04-19T00:49:34.708Z,102370.19
2023-04-19T00:52:01.689Z,102376.50
2023-04-19T00:54:28.683Z,102366.53
2023-04-19T00:56:56.979Z,102377.81
2023-04-19T00:59:24.885Z,102373.41
2023-04-19T01:01:52.086Z,102373.94
2023-04-19T01:04:19.436Z,102372.38
2023-04-19T01:06:47.058Z,102368.28
2023-04-19T01:09:13.951Z,102365.09
2023-04-19T01:11:43.322Z,102375.06
2023-04-19T01:14:10.644Z,102344.13
2023-04-19T01:16:39.101Z,102374.91
2023-04-19T01:19:06.419Z,102374.75
2023-04-19T01:21:33.473Z,102373.03
2023-04-19T01:24:00.786Z,102364.56
2023-04-19T01:26:27.771Z,102369.81
2023-04-19T01:28:54.795Z,102349.81
2023-04-19T01:31:27.724Z,102380.28
2023-04-19T01:33:54.781Z,102377.00
2023-04-19T01:36:21.812Z,102337.94
2023-04-19T01:38:49.723Z,102354.09
2023-04-19T01:41:16.676Z,102361.19
2023-04-19T01:43:43.568Z,102374.53
2023-04-19T01:46:10.843Z,102377.00
2023-04-19T01:48:38.408Z,102377.94
2023-04-19T01:51:05.424Z,102355.78
2023-04-19T01:53:34.670Z,102353.31
2023-04-19T01:56:01.685Z,102351.47
2023-04-19T01:58:28.626Z,102362.66
2023-04-19T02:00:55.580Z,102378.16
2023-04-19T02:03:22.661Z,102353.75
2023-04-19T02:05:50.115Z,102361.53
2023-04-19T02:08:17.321Z,102359.13
2023-04-19T02:10:44.232Z,102364.47
2023-04-19T02:13:11.503Z,102366.44
2023-04-19T02:15:38.459Z,102372.75
2023-04-19T02:18:07.068Z,102359.38
2023-04-19T02:20:34.306Z,102364.94
2023-04-19T02:23:01.161Z,102373.47
2023-04-19T02:25:28.306Z,102369.41
2023-04-19T02:27:55.306Z,102373.09
2023-04-19T02:30:22.551Z,102361.81
2023-04-19T02:32:50.694Z,102368.38
2023-04-19T02:35:17.684Z,102370.41
2023-04-19T02:37:44.940Z,102380.50
2023-04-19T02:40:12.004Z,102371.16
2023-04-19T02:42:38.956Z,102376.88
2023-04-19T02:45:06.731Z,102386.66
2023-04-19T02:47:33.714Z,102390.53
2023-04-19T02:50:00.966Z,102390.41
2023-04-19T02:52:28.305Z,102379.28
2023-04-19T02:54:55.324Z,102385.47
2023-04-19T02:57:22.377Z,102392.88
2023-04-19T02:59:49.345Z,102392.09
2023-04-19T03:02:16.394Z,102387.09
2023-04-19T03:04:43.638Z,102390.00
2023-04-19T03:07:11.045Z,102383.81
2023-04-19T03:09:40.124Z,102385.75
2023-04-19T03:12:08.289Z,102402.66
2023-04-19T03:14:35.302Z,102356.25
2023-04-19T03:17:03.070Z,102388.66
2023-04-19T03:19:30.865Z,102406.50
2023-04-19T03:21:57.801Z,102380.53
2023-04-19T03:24:31.818Z,102404.66
2023-04-19T03:27:05.109Z,102403.72
2023-04-19T03:29:32.182Z,102373.91
2023-04-19T03:32:03.069Z,102398.81
2023-04-19T03:34:30.403Z,102393.81
2023-04-19T03:36:57.379Z,102387.69
2023-04-19T03:39:25.074Z,102398.25
2023-04-19T03:41:57.142Z,102384.78
2023-04-19T03:44:33.761Z,102398.91
2023-04-19T03:47:03.010Z,102399.09
2023-04-19T03:49:34.263Z,102393.09
2023-04-19T03:52:04.768Z,102387.16
2023-04-19T03:54:33.549Z,102391.44
2023-04-19T03:57:01.685Z,102400.38
2023-04-19T03:59:28.648Z,102415.47
2023-04-19T04:01:56.160Z,102402.59
2023-04-19T04:04:23.989Z,102411.31
2023-04-19T04:06:58.410Z,102402.66
2023-04-19T04:09:25.325Z,102405.63
2023-04-19T04:11:52.591Z,102415.19
2023-04-19T04:14:19.521Z,102420.50
2023-04-19T04:16:47.240Z,102423.34
2023-04-19T04:19:15.944Z,102417.66
2023-04-19T04:22:08.333Z,102376.69
2023-04-19T04:24:41.870Z,102426.50
2023-04-19T04:27:22.764Z,102384.31
2023-04-19T04:29:52.908Z,102405.06
2023-04-19T04:32:23.220Z,102394.69
2023-04-19T04:34:54.431Z,102415.34
2023-04-19T04:37:31.161Z,102383.63
2023-04-19T04:39:58.735Z,102339.81
2023-04-19T04:42:26.290Z,102399.28
2023-04-19T04:44:54.004Z,102389.94
2023-04-19T04:47:21.212Z,102413.75
2023-04-19T04:49:53.793Z,102420.91
2023-04-19T04:52:21.195Z,102421.84
2023-04-19T04:55:11.272Z,102390.88
2023-04-19T04:57:43.028Z,102430.13
2023-04-19T05:00:15.602Z,102406.72
2023-04-19T05:02:54.879Z,102417.34
2023-04-19T05:05:29.814Z,102398.09
2023-04-19T05:07:56.797Z,102431.50
2023-04-19T05:10:23.907Z,102390.63
2023-04-19T05:12:50.920Z,102384.78
2023-04-19T05:15:18.004Z,102420.41
2023-04-19T05:17:50.357Z,102410.28
2023-04-19T05:20:18.395Z,102413.91
2023-04-19T05:22:47.572Z,102421.16
2023-04-19T05:25:14.542Z,102419.78
2023-04-19T05:27:41.744Z,102403.72
2023-04-19T05:30:09.549Z,102387.88
2023-04-19T05:32:41.189Z,102417.84
2023-04-19T05:35:11.377Z,102427.56
2023-04-19T05:37:39.391Z,102415.09
2023-04-19T05:40:09.927Z,102417.91
2023-04-19T05:42:36.982Z,102421.44
2023-04-19T05:45:06.564Z,102419.09
2023-04-19T05:47:34.265Z,102402.38
2023-04-19T05:50:24.162Z,102413.19
2023-04-19T05:53:11.075Z,102417.50
2023-04-19T05:55:38.138Z,102388.13
2023-04-19T05:58:05.341Z,102396.38
2023-04-19T06:00:32.551Z,102384.13
2023-04-19T06:03:07.977Z,102419.16
2023-04-19T06:05:35.243Z,102420.44
2023-04-19T06:08:03.218Z,102408.97
2023-04-19T06:10:40.368Z,102395.59
2023-04-19T06:13:16.271Z,102401.69
2023-04-19T06:15:43.628Z,102410.09
2023-04-19T06:18:18.752Z,102417.97
2023-04-19T06:20:47.328Z,102426.34
2023-04-19T06:23:14.898Z,102412.53
2023-04-19T06:25:42.154Z,102414.28
2023-04-19T06:28:09.256Z,102414.13
2023-04-19T06:30:36.230Z,102386.31
2023-04-19T06:33:03.411Z,102421.44
2023-04-19T06:35:32.825Z,102435.84
2023-04-19T06:37:59.938Z,102402.63
2023-04-19T06:40:28.961Z,102430.38
2023-04-19T06:42:56.143Z,102409.91
2023-04-19T06:45:23.177Z,102419.22
2023-04-19T06:47:50.086Z,102419.59
2023-04-19T06:50:17.032Z,102418.47
2023-04-19T06:52:43.948Z,102420.63
2023-04-19T06:55:11.164Z,102429.50
2023-04-19T06:57:38.574Z,102400.75
2023-04-19T07:00:08.624Z,102420.13
2023-04-19T07:02:35.891Z,102426.22
2023-04-19T07:05:03.818Z,102408.47
2023-04-19T07:07:38.253Z,102416.88
2023-04-19T07:10:05.773Z,102404.78
2023-04-19T07:12:32.769Z,102420.94
2023-04-19T07:14:59.749Z,102404.75
2023-04-19T07:17:26.837Z,102395.03
2023-04-19T07:19:53.819Z,102406.06
2023-04-19T07:22:22.202Z,102409.97
2023-04-19T07:24:52.072Z,102392.56
2023-04-19T07:27:18.965Z,102386.38
2023-04-19T07:29:46.499Z,102384.25
2023-04-19T07:32:14.139Z,102392.38
2023-04-19T07:34:42.413Z,102388.50
2023-04-19T07:37:10.253Z,102397.13
2023-04-19T07:39:37.168Z,102363.94
2023-04-19T07:42:04.177Z,102382.47
2023-04-19T07:44:31.206Z,102379.09
2023-04-19T07:46:58.328Z,102372.94
2023-04-19T07:49:25.443Z,102376.66
2023-04-19T07:51:52.480Z,102349.53
2023-04-19T07:54:22.309Z,102363.78
2023-04-19T07:56:49.325Z,102364.06
2023-04-19T07:59:16.341Z,102372.97
2023-04-19T08:01:43.647Z,102352.84
2023-04-19T08:04:11.015Z,102359.75
2023-04-19T08:06:40.575Z,102371.28
2023-04-19T08:09:07.948Z,102361.78
2023-04-19T08:11:34.939Z,102339.97
2023-04-19T08:14:12.056Z,102338.91
2023-04-19T08:19:15.773Z,102341.81
2023-04-19T08:21:42.709Z,102349.13
2023-04-19T08:24:09.683Z,102341.03
2023-04-19T08:26:39.039Z,102342.06
2023-04-19T08:29:06.075Z,102324.47
2023-04-19T08:31:35.887Z,102335.88
2023-04-19T08:34:03.922Z,102318.66
2023-04-19T08:36:39.184Z,102332.56
2023-04-19T08:39:29.382Z,102315.56
2023-04-19T08:42:06.609Z,102318.00
2023-04-19T08:44:45.347Z,102308.34
2023-04-19T08:47:31.178Z,102316.19
2023-04-19T08:52:47.856Z,102317.06
2023-04-19T08:55:21.698Z,102313.00
2023-04-19T08:57:48.873Z,102288.56
2023-04-19T09:00:16.357Z,102291.16
2023-04-19T09:02:54.315Z,102308.94
2023-04-19T09:05:22.494Z,102274.31
2023-04-19T09:07:49.801Z,102281.81
2023-04-19T09:10:20.265Z,102292.22
2023-04-19T09:13:05.327Z,102297.88
2023-04-19T09:15:41.914Z,102292.75
2023-04-19T09:18:10.498Z,102272.47
2023-04-19T09:20:44.026Z,102274.88
2023-04-19T09:23:17.395Z,102282.66
2023-04-19T09:26:22.197Z,102283.72
2023-04-19T09:28:58.084Z,102278.19
2023-04-19T09:31:43.245Z,102277.28
2023-04-19T09:34:19.446Z,102264.69
2023-04-19T09:36:46.870Z,102261.84
2023-04-19T09:39:14.765Z,102241.34
2023-04-19T09:41:55.000Z,102244.84
2023-04-19T09:45:01.755Z,102254.31
2023-04-19T09:47:27.839Z,102250.53
2023-04-19T09:50:22.567Z,102235.66
2023-04-19T09:52:52.761Z,102243.78
2023-04-19T09:57:50.139Z,102231.97
2023-04-19T10:00:17.270Z,102227.75
2023-04-19T10:02:52.262Z,102206.22
2023-04-19T10:05:21.616Z,102224.16
2023-04-19T10:07:59.909Z,102207.72
2023-04-19T10:10:41.287Z,102201.38
2023-04-19T10:13:19.670Z,102212.09
2023-04-19T10:15:54.135Z,102220.53
2023-04-19T10:18:24.657Z,102210.31
2023-04-19T10:21:06.796Z,102211.88
2023-04-19T10:23:34.674Z,102207.06
2023-04-19T10:26:01.573Z,102189.50
2023-04-19T10:28:32.360Z,102197.56
2023-04-19T10:31:04.944Z,102186.25
2023-04-19T10:33:36.802Z,102201.94
2023-04-19T10:36:07.338Z,102181.03
2023-04-19T10:38:44.811Z,102198.75
2023-04-19T10:41:15.453Z,102180.72
2023-04-19T10:43:55.692Z,102181.00
2023-04-19T10:46:23.035Z,102186.41
2023-04-19T10:49:01.010Z,102171.72
2023-04-19T10:51:36.554Z,102168.91
2023-04-19T10:54:37.461Z,102159.38
2023-04-19T10:57:10.242Z,102137.44
2023-04-19T10:59:40.414Z,102148.69
2023-04-19T11:02:23.067Z,102134.47
2023-04-19T11:04:50.193Z,102143.78
2023-04-19T11:07:24.067Z,102126.31
2023-04-19T11:09:52.541Z,102108.69
2023-04-19T11:12:21.062Z,102099.84
2023-04-19T11:15:00.002Z,102098.03
2023-04-19T11:17:31.806Z,102095.16
2023-04-19T11:20:09.317Z,102093.25
2023-04-19T11:22:39.506Z,102092.09
2023-04-19T11:25:12.717Z,102093.31
2023-04-19T11:27:41.491Z,102072.91
2023-04-19T11:30:19.452Z,102077.97
2023-04-19T11:32:48.945Z,102085.25
2023-04-19T11:35:43.554Z,102061.72
2023-04-19T11:38:13.979Z,102048.00
2023-04-19T11:40:40.885Z,102047.78
2023-04-19T11:43:07.944Z,102046.31
2023-04-19T11:45:39.481Z,102042.75
2023-04-19T11:48:14.484Z,102041.50
2023-04-19T11:50:45.857Z,102043.34
2023-04-19T11:53:24.928Z,102021.78
2023-04-19T11:56:18.929Z,102035.34
2023-04-19T11:58:49.989Z,102034.88
2023-04-19T12:01:21.015Z,102021.28
2023-04-19T12:03:50.534Z,102019.03
2023-04-19T12:06:29.115Z,102016.78
2023-04-19T12:08:57.069Z,102022.38
2023-04-19T12:11:27.129Z,102039.81
2023-04-19T12:14:14.595Z,102006.78
2023-04-19T12:16:42.781Z,101991.91
2023-04-19T12:19:18.543Z,102015.63
2023-04-19T12:21:47.356Z,102023.47
2023-04-19T12:24:17.729Z,102020.31
2023-04-19T12:28:14.510Z,102016.97
2023-04-19T12:29:46.079Z,102006.16
2023-04-19T12:32:14.685Z,101990.47
2023-04-19T12:34:42.052Z,102001.97
2023-04-19T12:37:09.100Z,101987.09
2023-04-19T12:39:36.030Z,101992.34
2023-04-19T12:42:03.285Z,101991.59
2023-04-19T12:44:30.433Z,101990.28
2023-04-19T12:46:57.793Z,101981.81
2023-04-19T12:49:24.908Z,101990.69
2023-04-19T12:51:51.884Z,101998.41
2023-04-19T12:54:18.852Z,101992.44
2023-04-19T12:56:45.736Z,101999.50
2023-04-19T12:59:12.724Z,101973.63
2023-04-19T13:01:39.700Z,101994.63
2023-04-19T13:04:09.127Z,101970.16
2023-04-19T13:06:36.398Z,101970.97
2023-04-19T13:09:11.398Z,101959.03
2023-04-19T13:11:41.119Z,101967.78
2023-04-19T13:14:08.203Z,101962.25
2023-04-19T13:16:35.068Z,101976.34
2023-04-19T13:19:02.007Z,101970.94
2023-04-19T13:21:28.967Z,101969.50
2023-04-19T13:23:59.925Z,101978.91
2023-04-19T13:26:27.143Z,101949.44
2023-04-19T13:28:54.190Z,101949.25
2023-04-19T13:31:21.161Z,101929.31
2023-04-19T13:33:48.189Z,101935.47
2023-04-19T13:36:15.316Z,101941.06
2023-04-19T13:38:42.377Z,101927.91
2023-04-19T13:41:09.702Z,101941.31
2023-04-19T13:43:36.728Z,101938.94
2023-04-19T13:46:03.660Z,101934.22
2023-04-19T13:48:30.612Z,101905.38
2023-04-19T13:50:58.948Z,101939.22
2023-04-19T13:53:28.815Z,101937.53
2023-04-19T13:55:56.266Z,101938.78
2023-04-19T13:58:24.806Z,101882.91
2023-04-19T14:00:52.439Z,101920.59
2023-04-19T14:03:19.660Z,101919.19
2023-04-19T14:05:47.018Z,101924.50
2023-04-19T14:08:13.935Z,101937.72
2023-04-19T14:10:41.447Z,101926.22
2023-04-19T14:13:08.440Z,101914.66
2023-04-19T14:15:35.356Z,101920.94
2023-04-19T14:18:02.889Z,101909.59
2023-04-19T14:20:29.892Z,101922.13
2023-04-19T14:22:58.937Z,101923.81
2023-04-19T14:25:27.831Z,101906.34
2023-04-19T14:27:54.796Z,101894.31
2023-04-19T14:30:21.796Z,101921.31
2023-04-19T14:32:48.791Z,101895.41
2023-04-19T14:35:15.758Z,101890.16
2023-04-19T14:37:42.853Z,101876.81
2023-04-19T14:40:11.153Z,101893.28
2023-04-19T14:42:38.192Z,101902.13
2023-04-19T14:45:06.002Z,101877.16
2023-04-19T14:47:32.937Z,101895.34
2023-04-19T14:49:59.986Z,101887.25
2023-04-19T14:52:26.952Z,101870.19
2023-04-19T14:54:54.541Z,101890.56
2023-04-19T14:57:21.528Z,101887.03
2023-04-19T14:59:48.424Z,101900.16
2023-04-19T15:02:15.513Z,101872.25
2023-04-19T15:04:42.884Z,101871.72
2023-04-19T15:07:10.137Z,101871.81
2023-04-19T15:09:37.075Z,101880.28
2023-04-19T15:12:04.175Z,101869.88
2023-04-19T15:14:31.079Z,101886.41
2023-04-19T15:16:58.013Z,101892.03
2023-04-19T15:19:25.054Z,101885.84
2023-04-19T15:21:51.929Z,101881.13
2023-04-19T15:24:18.977Z,101875.75
2023-04-19T15:26:45.945Z,101857.38
2023-04-19T15:29:13.019Z,101885.38
2023-04-19T15:31:40.225Z,101885.91
2023-04-19T15:34:07.241Z,101885.22
2023-04-19T15:36:34.174Z,101870.84
2023-04-19T15:39:01.271Z,101874.19
2023-04-19T15:41:28.280Z,101880.50
2023-04-19T15:43:55.859Z,101860.53
2023-04-19T15:46:24.196Z,101884.78
2023-04-19T15:48:51.209Z,101883.06
2023-04-19T15:51:18.110Z,101861.50
2023-04-19T15:53:45.014Z,101857.59
2023-04-19T15:56:11.973Z,101865.06
2023-04-19T15:58:39.066Z,101864.44
2023-04-19T16:01:11.759Z,101868.97
2023-04-19T16:03:39.487Z,101874.75
2023-04-19T16:06:06.617Z,101879.28
2023-04-19T16:08:34.036Z,101884.28
2023-04-19T16:11:00.941Z,101859.47
2023-04-19T16:13:30.073Z,101863.28
2023-04-19T16:15:58.357Z,101880.63
2023-04-19T16:18:25.345Z,101857.41
2023-04-19T16:20:54.137Z,101847.19
2023-04-19T16:23:21.052Z,101851.31
2023-04-19T16:25:48.056Z,101863.88
2023-04-19T16:28:16.529Z,101880.25
2023-04-19T16:30:47.353Z,101878.56
2023-04-19T16:33:15.644Z,101873.13
2023-04-19T16:35:42.721Z,101859.94
2023-04-19T16:38:09.708Z,101879.91
2023-04-19T16:40:36.669Z,101868.66
2023-04-19T16:43:04.766Z,101866.16
2023-04-19T16:45:32.122Z,101870.97
2023-04-19T16:47:59.397Z,101873.53
2023-04-19T16:50:26.344Z,101865.06
2023-04-19T16:52:53.280Z,101870.38
2023-04-19T16:55:21.679Z,101860.72
2023-04-19T16:57:49.408Z,101859.78
2023-04-19T17:00:16.741Z,101863.53
2023-04-19T17:02:43.778Z,101841.44
2023-04-19T17:05:12.652Z,101861.22
2023-04-19T17:07:39.772Z,101847.38
2023-04-19T17:10:07.696Z,101862.97
2023-04-19T17:12:34.675Z,101864.53
2023-04-19T17:15:01.587Z,101864.38
2023-04-19T17:17:28.520Z,101870.22
2023-04-19T17:19:56.923Z,101861.09
2023-04-19T17:22:23.870Z,101852.13
2023-04-19T17:24:50.928Z,101857.31
2023-04-19T17:27:17.818Z,101873.63
2023-04-19T17:29:44.958Z,101868.13
2023-04-19T17:32:11.916Z,101873.53
2023-04-19T17:34:38.846Z,101856.88
2023-04-19T17:37:05.783Z,101866.72
2023-04-19T17:39:32.751Z,101887.78
2023-04-19T17:42:02.554Z,101883.25
2023-04-19T17:44:29.491Z,101866.25
2023-04-19T17:46:57.295Z,101875.88
2023-04-19T17:49:26.463Z,101888.50
2023-04-19T17:51:56.024Z,101893.69
2023-04-19T17:54:23.248Z,101887.88
2023-04-19T17:56:52.410Z,101890.53
2023-04-19T17:59:19.484Z,101888.22
2023-04-19T18:01:46.466Z,101875.00
2023-04-19T18:04:17.699Z,101867.09
2023-04-19T18:06:45.709Z,101896.97
2023-04-19T18:09:15.525Z,101883.50
2023-04-19T18:11:42.816Z,101883.38
2023-04-19T18:14:09.915Z,101880.38
2023-04-19T18:16:37.110Z,101891.19
2023-04-19T18:19:04.105Z,101887.34
2023-04-19T18:21:31.102Z,101890.53
2023-04-19T18:23:58.116Z,101889.84
2023-04-19T18:26:25.422Z,101895.72
2023-04-19T18:28:52.295Z,101905.75
2023-04-19T18:31:19.189Z,101894.84
2023-04-19T18:33:46.233Z,101903.44
2023-04-19T18:36:13.265Z,101913.22
2023-04-19T18:38:40.173Z,101898.88
2023-04-19T18:41:07.177Z,101911.06
2023-04-19T18:43:34.135Z,101913.31
2023-04-19T18:46:01.428Z,101892.16
2023-04-19T18:48:29.653Z,101916.53
2023-04-19T18:51:23.567Z,101910.97
2023-04-19T18:53:51.811Z,101912.13
2023-04-19T18:56:19.230Z,101919.06
2023-04-19T18:58:46.397Z,101930.34
2023-04-19T19:01:13.352Z,101934.16
2023-04-19T19:04:02.904Z,101923.41
2023-04-19T19:06:27.679Z,101938.06
2023-04-19T19:08:55.005Z,101945.78
2023-04-19T19:11:47.084Z,101940.66
2023-04-19T19:14:09.851Z,101932.53
2023-04-19T19:16:50.892Z,101917.69
2023-04-19T19:19:20.660Z,101916.91
2023-04-19T19:21:48.301Z,101933.00
2023-04-19T19:24:15.217Z,101930.47
2023-04-19T19:26:42.137Z,101943.41
2023-04-19T19:29:11.294Z,101942.78
2023-04-19T19:31:38.341Z,101939.97
2023-04-19T19:34:22.597Z,101933.84
2023-04-19T19:36:52.645Z,101944.19
2023-04-19T19:39:19.528Z,101941.06
2023-04-19T19:42:03.629Z,101936.84
2023-04-19T19:44:32.665Z,101940.38
2023-04-19T19:46:59.632Z,101933.59
2023-04-19T19:49:27.481Z,101925.25
2023-04-19T19:51:59.137Z,101928.88
2023-04-19T19:54:26.814Z,101919.09
2023-04-19T19:57:39.126Z,101915.63
2023-04-19T19:59:49.180Z,101922.38
2023-04-19T20:02:19.646Z,101913.63
2023-04-19T20:04:46.808Z,101909.97
2023-04-19T20:09:44.179Z,101912.56
2023-04-19T20:12:13.220Z,101912.31
2023-04-19T20:14:40.641Z,101894.44
2023-04-19T20:17:07.980Z,101903.38
2023-04-19T20:19:35.845Z,101894.03
2023-04-19T20:22:02.859Z,101909.44
2023-04-19T20:24:31.698Z,101919.09
2023-04-19T20:26:58.749Z,101914.69
2023-04-19T20:29:25.675Z,101911.28
2023-04-19T20:31:52.727Z,101884.03
2023-04-19T20:34:19.717Z,101891.75
2023-04-19T20:36:46.993Z,101900.06
2023-04-19T20:39:14.176Z,101902.69
2023-04-19T20:41:41.268Z,101883.06
2023-04-19T20:44:08.201Z,101897.56
2023-04-19T20:46:35.853Z,101891.22
2023-04-19T20:49:02.745Z,101876.22
2023-04-19T20:51:29.733Z,101890.56
2023-04-19T20:53:56.666Z,101888.19
2023-04-19T20:56:24.322Z,101885.31
2023-04-19T20:58:51.434Z,101873.53
2023-04-19T21:01:19.149Z,101872.56
2023-04-19T21:03:46.652Z,101854.09
2023-04-19T21:06:13.682Z,101864.13
2023-04-19T21:08:40.630Z,101841.13
2023-04-19T21:11:07.534Z,101868.31
2023-04-19T21:13:34.612Z,101865.72
2023-04-19T21:16:01.606Z,101856.16
2023-04-19T21:18:29.996Z,101834.63
2023-04-19T21:20:58.769Z,101856.59
2023-04-19T21:23:25.809Z,101847.66
2023-04-19T21:25:52.809Z,101836.91
2023-04-19T21:28:20.301Z,101829.63
2023-04-19T21:30:47.197Z,101823.19
2023-04-19T21:33:14.156Z,101800.66
2023-04-19T21:35:41.125Z,101812.59
2023-04-19T21:38:08.140Z,101814.44
2023-04-19T21:40:35.053Z,101806.34
2023-04-19T21:43:01.994Z,101809.13
2023-04-19T21:45:28.906Z,101807.03
2023-04-19T21:47:56.140Z,101805.31
2023-04-19T21:50:23.133Z,101819.31
2023-04-19T21:52:50.097Z,101803.03
2023-04-19T21:55:17.100Z,101806.53
2023-04-19T21:57:43.983Z,101801.00
2023-04-19T22:00:11.567Z,101795.25
2023-04-19T22:02:41.175Z,101796.38
2023-04-19T22:05:10.004Z,101778.88
2023-04-19T22:07:38.415Z,101782.75
2023-04-19T22:10:06.688Z,101792.97
2023-04-19T22:12:34.335Z,101787.59
2023-04-19T22:15:02.324Z,101791.44
2023-04-19T22:17:29.916Z,101785.88
2023-04-19T22:19:59.091Z,101785.00
2023-04-19T22:22:26.220Z,101760.75
2023-04-19T22:24:58.010Z,101781.41
2023-04-19T22:27:25.685Z,101769.56
2023-04-19T22:29:53.143Z,101765.38
2023-04-19T22:32:20.255Z,101763.81
2023-04-19T22:34:47.299Z,101754.44
2023-04-19T22:37:14.328Z,101758.63
2023-04-19T22:39:41.224Z,101742.91
2023-04-19T22:42:08.116Z,101755.03
2023-04-19T22:44:35.259Z,101743.00
2023-04-19T22:47:03.381Z,101727.44
2023-04-19T22:49:30.379Z,101708.03
2023-04-19T22:51:58.535Z,101731.13
2023-04-19T22:54:26.560Z,101711.63
2023-04-19T22:56:53.497Z,101719.91
2023-04-19T22:59:20.612Z,101718.88
2023-04-19T23:01:47.662Z,101717.34
2023-04-19T23:04:15.217Z,101699.22
2023-04-19T23:06:44.116Z,101689.31
2023-04-19T23:09:13.692Z,101693.84
2023-04-19T23:11:41.375Z,101683.00
2023-04-19T23:14:11.680Z,101681.19
2023-04-19T23:16:38.797Z,101674.25
2023-04-19T23:19:07.551Z,101683.84
2023-04-19T23:21:34.689Z,101668.50
2023-04-19T23:24:01.651Z,101645.63
2023-04-19T23:26:29.893Z,101688.75
2023-04-19T23:28:56.833Z,101684.22
2023-04-19T23:31:23.828Z,101666.13
2023-04-19T23:33:50.833Z,101667.88
2023-04-19T23:36:17.822Z,101674.97
2023-04-19T23:38:44.828Z,101667.03
2023-04-19T23:41:14.495Z,101670.84
2023-04-19T23:43:41.421Z,101674.97
2023-04-19T23:46:08.494Z,101656.03
2023-04-19T23:48:35.582Z,101656.03
2023-04-19T23:51:04.403Z,101653.94
2023-04-19T23:53:31.561Z,101640.50
2023-04-19T23:55:58.520Z,101668.31
2023-04-19T23:58:25.409Z,101664.25
